createdAt,value
2023-03-31T00:01:52.992Z,9.86
2023-03-31T00:04:24.079Z,9.90
2023-03-31T00:06:54.240Z,9.89
2023-03-31T00:09:24.441Z,9.89
2023-03-31T00:11:52.193Z,9.90
2023-03-31T00:14:20.322Z,9.92
2023-03-31T00:16:47.280Z,9.82
2023-03-31T00:19:21.306Z,9.92
2023-03-31T00:21:48.656Z,9.89
2023-03-31T00:24:16.219Z,9.89
2023-03-31T00:26:43.095Z,9.85
2023-03-31T00:29:11.522Z,9.87
2023-03-31T00:31:39.042Z,9.91
2023-03-31T00:34:06.240Z,9.72
2023-03-31T00:36:36.973Z,9.85
2023-03-31T00:39:09.162Z,9.83
2023-03-31T00:41:39.348Z,9.90
2023-03-31T00:44:24.782Z,9.85
2023-03-31T00:46:52.530Z,9.91
2023-03-31T00:49:25.169Z,9.93
2023-03-31T00:51:52.413Z,9.93
2023-03-31T00:54:19.598Z,9.92
2023-03-31T00:56:50.562Z,9.95
2023-03-31T00:59:17.862Z,9.95
2023-03-31T01:01:46.547Z,9.93
2023-03-31T01:04:14.408Z,9.95
2023-03-31T01:06:52.463Z,9.91
2023-03-31T01:09:20.220Z,9.87
2023-03-31T01:11:47.793Z,9.84
2023-03-31T01:14:14.308Z,9.83
2023-03-31T01:16:40.837Z,9.70
2023-03-31T01:19:16.039Z,9.83
2023-03-31T01:22:02.672Z,9.86
2023-03-31T01:24:47.125Z,9.89
2023-03-31T01:27:22.842Z,9.92
2023-03-31T01:29:59.825Z,9.91
2023-03-31T01:32:55.429Z,9.88
2023-03-31T01:35:24.860Z,9.89
2023-03-31T01:38:36.679Z,9.87
2023-03-31T01:41:11.766Z,9.86
2023-03-31T01:43:49.069Z,9.85
2023-03-31T01:46:25.639Z,9.86
2023-03-31T01:49:01.367Z,9.85
2023-03-31T01:51:36.818Z,9.85
2023-03-31T01:54:27.835Z,9.88
2023-03-31T01:57:01.725Z,9.86
2023-03-31T01:59:34.951Z,9.89
2023-03-31T02:02:31.481Z,9.85
2023-03-31T02:05:25.673Z,9.87
2023-03-31T02:08:06.638Z,9.82
2023-03-31T02:10:33.352Z,9.89
2023-03-31T02:13:01.189Z,9.88
2023-03-31T02:15:34.887Z,9.95
2023-03-31T02:18:03.666Z,9.82
2023-03-31T02:20:32.622Z,9.95
2023-03-31T02:22:59.613Z,9.98
2023-03-31T02:25:38.671Z,10.00
2023-03-31T02:28:11.097Z,10.06
2023-03-31T02:31:06.780Z,10.10
2023-03-31T02:33:33.323Z,10.02
2023-03-31T02:36:00.148Z,10.18
2023-03-31T02:38:27.068Z,10.17
2023-03-31T02:40:53.920Z,10.19
2023-03-31T02:43:20.542Z,10.16
2023-03-31T02:45:51.124Z,10.26
2023-03-31T02:48:22.223Z,10.25
2023-03-31T02:51:07.494Z,10.27
2023-03-31T02:53:34.038Z,10.26
2023-03-31T02:56:12.608Z,10.28
2023-03-31T02:59:05.377Z,10.29
2023-03-31T03:01:47.012Z,10.30
2023-03-31T03:04:41.986Z,10.31
2023-03-31T03:07:14.302Z,10.31
2023-03-31T03:10:03.402Z,10.35
2023-03-31T03:12:40.653Z,10.35
2023-03-31T03:15:18.995Z,10.24
2023-03-31T03:17:47.680Z,10.29
2023-03-31T03:20:16.195Z,10.37
2023-03-31T03:22:43.140Z,10.38
2023-03-31T03:25:12.102Z,10.38
2023-03-31T03:27:39.099Z,10.37
2023-03-31T03:30:08.718Z,10.37
2023-03-31T03:32:35.589Z,10.36
2023-03-31T03:35:03.560Z,10.35
2023-03-31T03:37:30.870Z,10.31
2023-03-31T03:39:57.578Z,10.30
2023-03-31T03:42:24.180Z,10.24
2023-03-31T03:44:50.821Z,10.31
2023-03-31T03:47:17.306Z,10.30
2023-03-31T03:49:45.182Z,10.21
2023-03-31T03:52:11.630Z,10.26
2023-03-31T03:54:38.162Z,10.26
2023-03-31T03:57:04.691Z,10.24
2023-03-31T03:59:31.189Z,10.22
2023-03-31T04:01:57.806Z,10.21
2023-03-31T04:04:24.506Z,10.20
2023-03-31T04:06:51.174Z,10.21
2023-03-31T04:09:18.114Z,10.20
2023-03-31T04:11:44.653Z,10.15
2023-03-31T04:14:11.193Z,9.92
2023-03-31T04:16:38.443Z,9.99
2023-03-31T04:19:05.168Z,10.12
2023-03-31T04:21:34.836Z,10.11
2023-03-31T04:24:04.400Z,10.10
2023-03-31T04:26:42.736Z,10.07
2023-03-31T04:29:16.325Z,10.06
2023-03-31T04:31:43.645Z,10.06
2023-03-31T04:34:15.184Z,10.04
2023-03-31T04:36:49.201Z,10.03
2023-03-31T04:39:30.780Z,9.87
2023-03-31T04:42:01.398Z,10.00
2023-03-31T04:44:28.627Z,10.00
2023-03-31T04:46:55.812Z,10.01
2023-03-31T04:49:22.812Z,10.00
2023-03-31T04:51:49.364Z,9.92
2023-03-31T04:54:16.187Z,9.98
2023-03-31T04:56:42.750Z,9.84
2023-03-31T04:59:09.369Z,9.83
2023-03-31T05:01:36.456Z,9.95
2023-03-31T05:04:04.305Z,9.95
2023-03-31T05:06:31.176Z,9.92
2023-03-31T05:08:57.767Z,9.80
2023-03-31T05:11:24.285Z,9.76
2023-03-31T05:13:50.910Z,9.82
2023-03-31T05:16:18.533Z,9.88
2023-03-31T05:18:44.979Z,9.88
2023-03-31T05:21:19.696Z,9.90
2023-03-31T05:23:46.532Z,9.89
2023-03-31T05:26:13.718Z,9.91
2023-03-31T05:28:40.432Z,9.92
2023-03-31T05:31:07.653Z,9.93
2023-03-31T05:33:34.698Z,9.88
2023-03-31T05:36:01.327Z,9.92
2023-03-31T05:38:31.631Z,9.91
2023-03-31T05:40:58.344Z,9.91
2023-03-31T05:43:25.102Z,9.91
2023-03-31T05:45:51.805Z,9.89
2023-03-31T05:48:18.508Z,9.82
2023-03-31T05:50:45.326Z,9.95
2023-03-31T05:53:11.846Z,9.99
2023-03-31T05:55:39.521Z,9.90
2023-03-31T05:58:06.804Z,10.08
2023-03-31T06:00:33.292Z,10.13
2023-03-31T06:02:59.879Z,10.07
2023-03-31T06:05:26.905Z,10.18
2023-03-31T06:07:53.906Z,10.20
2023-03-31T06:10:20.671Z,10.23
2023-03-31T06:12:47.115Z,10.26
2023-03-31T06:15:13.813Z,10.23
2023-03-31T06:17:40.430Z,10.33
2023-03-31T06:20:16.285Z,10.37
2023-03-31T06:22:50.946Z,10.45
2023-03-31T06:25:17.597Z,10.50
2023-03-31T06:27:44.086Z,10.58
2023-03-31T06:30:11.235Z,10.62
2023-03-31T06:32:37.678Z,10.72
2023-03-31T06:35:04.449Z,10.79
2023-03-31T06:37:30.980Z,10.83
2023-03-31T06:39:57.537Z,10.87
2023-03-31T06:42:24.076Z,10.90
2023-03-31T06:44:50.789Z,10.80
2023-03-31T06:47:17.266Z,10.89
2023-03-31T06:49:43.753Z,10.87
2023-03-31T06:52:10.230Z,10.86
2023-03-31T06:54:36.738Z,10.88
2023-03-31T06:57:03.349Z,10.92
2023-03-31T06:59:29.924Z,10.92
2023-03-31T07:01:56.496Z,10.94
2023-03-31T07:04:23.090Z,10.96
2023-03-31T07:06:49.513Z,11.02
2023-03-31T07:09:16.106Z,11.04
2023-03-31T07:11:42.530Z,11.16
2023-03-31T07:14:08.955Z,11.20
2023-03-31T07:16:36.239Z,11.23
2023-03-31T07:19:04.225Z,11.26
2023-03-31T07:21:31.230Z,11.35
2023-03-31T07:23:58.089Z,11.42
2023-03-31T07:26:24.597Z,11.51
2023-03-31T07:28:51.931Z,11.57
2023-03-31T07:31:18.568Z,11.56
2023-03-31T07:33:45.111Z,11.56
2023-03-31T07:36:13.747Z,11.56
2023-03-31T07:38:42.255Z,11.56
2023-03-31T07:41:13.528Z,11.56
2023-03-31T07:43:40.543Z,11.54
2023-03-31T07:46:08.499Z,11.55
2023-03-31T07:48:35.349Z,11.56
2023-03-31T07:51:01.898Z,11.57
2023-03-31T07:53:28.423Z,11.60
2023-03-31T07:55:54.954Z,11.55
2023-03-31T07:58:21.503Z,11.57
2023-03-31T08:00:48.017Z,11.57
2023-03-31T08:03:14.600Z,11.58
2023-03-31T08:05:41.155Z,11.61
2023-03-31T08:08:07.649Z,11.69
2023-03-31T08:10:34.300Z,11.74
2023-03-31T08:13:00.751Z,11.79
2023-03-31T08:15:27.311Z,11.81
2023-03-31T08:17:53.921Z,11.74
2023-03-31T08:20:20.458Z,11.85
2023-03-31T08:22:47.010Z,11.73
2023-03-31T08:25:13.549Z,11.87
2023-03-31T08:27:40.762Z,11.88
2023-03-31T08:30:09.386Z,11.87
2023-03-31T08:32:36.167Z,11.83
2023-03-31T08:35:03.565Z,11.80
2023-03-31T08:37:30.003Z,11.79
2023-03-31T08:39:56.484Z,11.75
2023-03-31T08:42:39.425Z,11.74
2023-03-31T08:45:18.296Z,11.67
2023-03-31T08:47:45.936Z,11.67
2023-03-31T08:50:19.559Z,11.66
2023-03-31T08:52:50.981Z,11.63
2023-03-31T08:55:25.937Z,11.46
2023-03-31T08:57:52.383Z,11.58
2023-03-31T09:00:19.267Z,11.49
2023-03-31T09:03:07.406Z,11.42
2023-03-31T09:06:00.580Z,11.39
2023-03-31T09:08:36.760Z,11.37
2023-03-31T09:11:36.918Z,11.31
2023-03-31T09:14:14.936Z,11.32
2023-03-31T09:17:08.299Z,11.28
2023-03-31T09:19:58.960Z,11.25
2023-03-31T09:22:34.938Z,11.22
2023-03-31T09:25:06.606Z,11.24
2023-03-31T09:27:37.277Z,11.23
2023-03-31T09:30:20.637Z,11.26
2023-03-31T09:32:53.456Z,11.32
2023-03-31T09:35:25.941Z,11.37
2023-03-31T09:37:53.984Z,11.40
2023-03-31T09:40:25.986Z,11.39
2023-03-31T09:43:05.004Z,11.39
2023-03-31T09:45:33.936Z,11.37
2023-03-31T09:48:15.237Z,11.34
2023-03-31T09:50:54.921Z,11.35
2023-03-31T09:53:32.217Z,11.36
2023-03-31T09:56:04.759Z,11.39
2023-03-31T09:58:31.732Z,11.41
2023-03-31T10:01:03.751Z,11.44
2023-03-31T10:03:36.480Z,11.46
2023-03-31T10:06:09.492Z,11.49
2023-03-31T10:08:44.686Z,11.48
2023-03-31T10:11:12.242Z,11.42
2023-03-31T10:14:04.840Z,11.53
2023-03-31T10:16:43.551Z,11.49
2023-03-31T10:19:22.291Z,11.46
2023-03-31T10:21:56.499Z,11.24
2023-03-31T10:24:22.948Z,11.32
2023-03-31T10:26:52.454Z,11.23
2023-03-31T10:29:25.750Z,11.19
2023-03-31T10:31:52.334Z,10.98
2023-03-31T10:34:19.214Z,10.77
2023-03-31T10:36:50.644Z,10.82
2023-03-31T10:39:18.024Z,10.71
2023-03-31T10:41:50.716Z,10.58
2023-03-31T10:44:32.524Z,10.49
2023-03-31T10:47:06.443Z,10.33
2023-03-31T10:49:39.417Z,10.28
2023-03-31T10:52:16.022Z,10.27
2023-03-31T10:54:51.206Z,10.23
2023-03-31T10:57:18.824Z,10.18
2023-03-31T11:00:05.679Z,10.14
2023-03-31T11:03:03.403Z,10.12
2023-03-31T11:05:59.715Z,10.12
2023-03-31T11:08:32.998Z,10.08
2023-03-31T11:11:12.704Z,10.08
2023-03-31T11:13:59.616Z,10.21
2023-03-31T11:16:36.849Z,10.41
2023-03-31T11:19:06.531Z,10.58
2023-03-31T11:21:45.417Z,10.73
2023-03-31T11:24:31.744Z,10.96
2023-03-31T11:27:04.036Z,11.11
2023-03-31T11:29:35.932Z,11.26
2023-03-31T11:32:28.361Z,11.42
2023-03-31T11:35:14.170Z,11.79
2023-03-31T11:38:15.918Z,12.05
2023-03-31T11:41:04.101Z,12.31
2023-03-31T11:43:44.415Z,12.66
2023-03-31T11:46:30.390Z,13.01
2023-03-31T11:49:04.801Z,13.16
2023-03-31T11:51:34.346Z,13.30
2023-03-31T11:54:03.884Z,13.39
2023-03-31T11:56:38.549Z,13.40
2023-03-31T11:59:06.439Z,13.45
2023-03-31T12:01:54.142Z,13.59
2023-03-31T12:04:33.780Z,13.51
2023-03-31T12:07:15.151Z,13.68
2023-03-31T12:09:53.656Z,13.95
2023-03-31T12:12:24.812Z,13.99
2023-03-31T12:15:03.195Z,13.93
2023-03-31T12:17:29.813Z,13.85
2023-03-31T12:19:59.830Z,13.90
2023-03-31T12:22:29.712Z,14.03
2023-03-31T12:24:56.348Z,14.01
2023-03-31T12:27:42.352Z,14.08
2023-03-31T12:30:15.816Z,14.06
2023-03-31T12:33:09.720Z,14.00
2023-03-31T12:35:36.206Z,13.98
2023-03-31T12:38:06.142Z,13.92
2023-03-31T12:40:41.927Z,13.92
2023-03-31T12:43:11.936Z,13.93
2023-03-31T12:45:54.449Z,13.86
2023-03-31T12:48:33.822Z,13.78
2023-03-31T12:51:35.927Z,13.61
2023-03-31T12:54:20.593Z,13.43
2023-03-31T12:57:03.308Z,13.18
2023-03-31T12:59:35.413Z,12.99
2023-03-31T13:02:23.506Z,12.76
2023-03-31T13:04:50.851Z,12.67
2023-03-31T13:07:28.217Z,12.52
2023-03-31T13:09:59.970Z,12.28
2023-03-31T13:12:28.670Z,12.01
2023-03-31T13:14:59.994Z,11.75
2023-03-31T13:17:37.051Z,11.32
2023-03-31T13:20:38.664Z,11.09
2023-03-31T13:23:11.507Z,10.78
2023-03-31T13:25:46.603Z,10.66
2023-03-31T13:28:17.363Z,10.56
2023-03-31T13:31:06.827Z,10.45
2023-03-31T13:33:57.511Z,10.38
2023-03-31T13:36:50.929Z,10.35
2023-03-31T13:39:51.623Z,10.29
2023-03-31T13:43:06.994Z,10.25
2023-03-31T13:45:39.477Z,10.22
2023-03-31T13:48:21.212Z,10.21
2023-03-31T13:50:59.473Z,10.19
2023-03-31T13:53:28.847Z,10.17
2023-03-31T13:56:08.662Z,10.12
2023-03-31T13:58:50.395Z,9.90
2023-03-31T14:01:32.995Z,10.06
2023-03-31T14:04:22.782Z,10.09
2023-03-31T14:06:56.863Z,10.14
2023-03-31T14:09:33.323Z,10.07
2023-03-31T14:12:00.745Z,10.27
2023-03-31T14:14:29.648Z,10.38
2023-03-31T14:16:58.414Z,10.29
2023-03-31T14:19:40.495Z,10.43
2023-03-31T14:22:06.975Z,10.45
2023-03-31T14:24:54.820Z,10.48
2023-03-31T14:27:47.466Z,10.54
2023-03-31T14:30:24.712Z,10.59
2023-03-31T14:33:12.462Z,10.66
2023-03-31T14:35:43.352Z,10.74
2023-03-31T14:38:14.742Z,10.80
2023-03-31T14:40:47.834Z,10.78
2023-03-31T14:43:22.880Z,10.83
2023-03-31T14:46:00.255Z,10.86
2023-03-31T14:48:29.292Z,10.95
2023-03-31T14:51:01.785Z,10.96
2023-03-31T14:53:28.888Z,10.96
2023-03-31T14:56:01.547Z,10.96
2023-03-31T14:58:32.121Z,10.97
2023-03-31T15:00:58.766Z,10.91
2023-03-31T15:03:26.055Z,10.91
2023-03-31T15:05:59.105Z,11.05
2023-03-31T15:08:25.884Z,11.10
2023-03-31T15:11:02.391Z,11.15
2023-03-31T15:13:56.799Z,11.10
2023-03-31T15:16:30.758Z,11.28
2023-03-31T15:19:00.078Z,11.32
2023-03-31T15:21:28.821Z,11.40
2023-03-31T15:23:56.306Z,11.35
2023-03-31T15:26:40.804Z,11.42
2023-03-31T15:29:12.640Z,11.43
2023-03-31T15:31:40.983Z,11.37
2023-03-31T15:34:33.280Z,11.48
2023-03-31T15:37:00.998Z,11.46
2023-03-31T15:39:31.247Z,11.37
2023-03-31T15:41:58.810Z,11.45
2023-03-31T15:44:46.507Z,11.32
2023-03-31T15:47:17.321Z,11.49
2023-03-31T15:49:54.587Z,11.50
2023-03-31T15:52:28.615Z,11.53
2023-03-31T15:54:55.299Z,11.40
2023-03-31T15:57:22.361Z,11.66
2023-03-31T15:59:56.035Z,11.63
2023-03-31T16:02:25.799Z,11.75
2023-03-31T16:04:57.054Z,11.76
2023-03-31T16:07:30.123Z,11.77
2023-03-31T16:10:18.950Z,11.78
2023-03-31T16:12:56.978Z,11.67
2023-03-31T16:15:33.160Z,11.85
2023-03-31T16:18:05.813Z,11.85
2023-03-31T16:20:40.317Z,11.81
2023-03-31T16:23:19.031Z,11.87
2023-03-31T16:25:45.902Z,11.85
2023-03-31T16:28:18.148Z,11.70
2023-03-31T16:30:45.648Z,11.82
2023-03-31T16:33:17.848Z,11.75
2023-03-31T16:35:51.002Z,11.53
2023-03-31T16:38:17.853Z,11.55
2023-03-31T16:40:46.802Z,11.56
2023-03-31T16:43:17.279Z,11.50
2023-03-31T16:45:55.293Z,11.30
2023-03-31T16:48:23.852Z,11.39
2023-03-31T16:50:53.165Z,11.33
2023-03-31T16:53:34.559Z,11.12
2023-03-31T16:56:01.817Z,11.08
2023-03-31T16:58:29.449Z,10.81
2023-03-31T17:00:57.509Z,10.96
2023-03-31T17:03:24.429Z,11.10
2023-03-31T17:05:53.130Z,11.05
2023-03-31T17:08:21.624Z,11.02
2023-03-31T17:11:02.968Z,10.98
2023-03-31T17:13:32.485Z,10.91
2023-03-31T17:16:13.177Z,10.76
2023-03-31T17:18:44.664Z,10.92
2023-03-31T17:21:13.722Z,10.84
2023-03-31T17:23:41.098Z,10.76
2023-03-31T17:26:09.607Z,10.81
2023-03-31T17:28:36.766Z,10.78
2023-03-31T17:31:13.978Z,10.75
2023-03-31T17:33:41.657Z,10.61
2023-03-31T17:36:08.392Z,10.56
2023-03-31T17:38:34.960Z,10.47
2023-03-31T17:41:05.607Z,10.57
2023-03-31T17:43:33.214Z,10.45
2023-03-31T17:46:11.920Z,10.51
2023-03-31T17:48:39.714Z,10.47
2023-03-31T17:51:08.470Z,10.46
2023-03-31T17:53:35.724Z,10.44
2023-03-31T17:56:03.767Z,10.46
2023-03-31T17:58:31.090Z,10.45
2023-03-31T18:00:58.464Z,10.43
2023-03-31T18:03:27.520Z,10.37
2023-03-31T18:05:54.204Z,10.39
2023-03-31T18:08:20.871Z,10.38
2023-03-31T18:10:47.333Z,10.29
2023-03-31T18:13:14.240Z,10.17
2023-03-31T18:15:48.387Z,10.29
2023-03-31T18:18:15.708Z,10.26
2023-03-31T18:20:42.408Z,10.25
2023-03-31T18:23:09.081Z,10.21
2023-03-31T18:25:36.094Z,10.24
2023-03-31T18:28:02.879Z,10.13
2023-03-31T18:30:29.332Z,10.27
2023-03-31T18:32:56.151Z,10.21
2023-03-31T18:35:23.348Z,10.10
2023-03-31T18:37:49.977Z,10.23
2023-03-31T18:40:17.796Z,10.12
2023-03-31T18:42:44.270Z,10.08
2023-03-31T18:45:11.221Z,10.10
2023-03-31T18:47:37.930Z,10.06
2023-03-31T18:50:04.918Z,9.99
2023-03-31T18:52:31.687Z,10.04
2023-03-31T18:54:59.032Z,10.03
2023-03-31T18:57:26.055Z,10.00
2023-03-31T18:59:52.665Z,9.93
2023-03-31T19:02:19.245Z,9.91
2023-03-31T19:04:46.992Z,9.88
2023-03-31T19:07:15.651Z,9.89
2023-03-31T19:09:42.843Z,9.88
2023-03-31T19:12:11.768Z,9.84
2023-03-31T19:14:41.370Z,9.80
2023-03-31T19:17:09.074Z,9.78
2023-03-31T19:19:36.860Z,9.76
2023-03-31T19:22:04.297Z,9.75
2023-03-31T19:24:31.621Z,9.76
2023-03-31T19:26:58.968Z,9.62
2023-03-31T19:29:27.657Z,9.70
2023-03-31T19:31:55.490Z,9.68
2023-03-31T19:34:22.681Z,9.60
2023-03-31T19:36:50.444Z,9.62
2023-03-31T19:39:17.700Z,9.45
2023-03-31T19:41:44.860Z,9.47
2023-03-31T19:44:14.122Z,9.42
2023-03-31T19:46:41.675Z,9.56
2023-03-31T19:49:11.181Z,9.51
2023-03-31T19:51:38.539Z,9.51
2023-03-31T19:54:06.354Z,9.54
2023-03-31T19:56:36.630Z,9.43
2023-03-31T19:59:04.840Z,9.47
2023-03-31T20:01:33.219Z,9.48
2023-03-31T20:04:01.767Z,9.41
2023-03-31T20:06:31.149Z,9.45
2023-03-31T20:09:01.280Z,9.50
2023-03-31T20:11:34.746Z,9.35
2023-03-31T20:14:04.850Z,9.31
2023-03-31T20:16:39.911Z,9.29
2023-03-31T20:19:19.440Z,9.28
2023-03-31T20:22:09.858Z,9.37
2023-03-31T20:24:51.278Z,9.25
2023-03-31T20:27:31.786Z,9.42
2023-03-31T20:30:14.832Z,9.37
2023-03-31T20:32:55.305Z,9.40
2023-03-31T20:35:36.225Z,9.42
2023-03-31T20:38:17.405Z,9.43
2023-03-31T20:41:02.060Z,9.41
2023-03-31T20:43:47.504Z,9.41
2023-03-31T20:46:29.430Z,9.36
2023-03-31T20:49:10.718Z,9.21
2023-03-31T20:51:47.025Z,9.38
2023-03-31T20:54:14.885Z,9.26
2023-03-31T20:56:41.772Z,9.40
2023-03-31T20:59:11.352Z,9.42
2023-03-31T21:01:38.447Z,9.32
2023-03-31T21:04:06.709Z,9.40
2023-03-31T21:06:41.806Z,9.39
2023-03-31T21:09:08.830Z,9.36
2023-03-31T21:11:35.426Z,9.39
2023-03-31T21:14:02.296Z,9.38
2023-03-31T21:16:28.866Z,9.40
2023-03-31T21:18:55.617Z,9.40
2023-03-31T21:21:24.383Z,9.39
2023-03-31T21:23:51.513Z,9.29
2023-03-31T21:26:18.601Z,9.42
2023-03-31T21:28:45.911Z,9.44
2023-03-31T21:31:15.240Z,9.41
2023-03-31T21:33:42.833Z,9.40
2023-03-31T21:36:14.750Z,9.40
2023-03-31T21:38:41.303Z,9.30
2023-03-31T21:41:31.337Z,9.40
2023-03-31T21:44:00.498Z,9.38
2023-03-31T21:46:30.452Z,9.25
2023-03-31T21:48:57.612Z,9.20
2023-03-31T21:51:25.067Z,9.38
2023-03-31T21:53:55.067Z,9.37
2023-03-31T21:56:27.523Z,9.37
2023-03-31T21:58:54.079Z,9.37
2023-03-31T22:01:21.517Z,9.34
2023-03-31T22:03:48.815Z,9.35
2023-03-31T22:06:15.887Z,9.31
2023-03-31T22:08:42.456Z,9.36
2023-03-31T22:11:10.380Z,9.36
2023-03-31T22:13:37.578Z,9.35
2023-03-31T22:16:05.377Z,9.36
2023-03-31T22:18:32.131Z,9.30
2023-03-31T22:20:58.628Z,9.36
2023-03-31T22:23:26.039Z,9.31
2023-03-31T22:25:52.496Z,9.38
2023-03-31T22:28:19.019Z,9.35
2023-03-31T22:30:45.511Z,9.42
2023-03-31T22:33:12.625Z,9.43
2023-03-31T22:35:39.160Z,9.40
2023-03-31T22:38:06.594Z,9.40
2023-03-31T22:40:34.640Z,9.39
2023-03-31T22:43:01.486Z,9.35
2023-03-31T22:45:28.296Z,9.38
2023-03-31T22:47:55.057Z,9.36
2023-03-31T22:50:21.574Z,9.36
2023-03-31T22:52:48.013Z,9.34
2023-03-31T22:55:14.629Z,9.34
2023-03-31T22:57:41.314Z,9.33
2023-03-31T23:00:10.849Z,9.31
2023-03-31T23:02:37.392Z,9.29
2023-03-31T23:05:04.053Z,9.22
2023-03-31T23:07:30.564Z,9.28
2023-03-31T23:09:57.073Z,9.28
2023-03-31T23:12:27.246Z,9.28
2023-03-31T23:14:54.064Z,9.31
2023-03-31T23:17:20.716Z,9.31
2023-03-31T23:19:47.962Z,9.30
2023-03-31T23:22:14.608Z,9.24
2023-03-31T23:24:41.625Z,9.34
2023-03-31T23:27:08.660Z,9.27
2023-03-31T23:29:35.564Z,9.37
2023-03-31T23:32:02.711Z,9.36
2023-03-31T23:34:29.288Z,9.35
2023-03-31T23:36:55.685Z,9.37
2023-03-31T23:39:22.583Z,9.31
2023-03-31T23:41:49.187Z,9.29
2023-03-31T23:44:15.597Z,9.26
2023-03-31T23:46:44.139Z,9.33
2023-03-31T23:49:11.240Z,9.34
2023-03-31T23:51:37.727Z,9.40
2023-03-31T23:54:04.211Z,9.41
2023-03-31T23:56:30.961Z,9.42
2023-03-31T23:58:57.512Z,9.44
